Time;durP1;ratioP1;P1;durP2;ratioP2;P2;SDS_P1;SDS_P2;PMS_P1;PMS_P2;Temp;Humidity;BMP_temperature;BMP_pressure;BME280_temperature;BME280_humidity;BME280_pressure;Samples;Min_cycle;Max_cycle;Signal;HPM_P1;HPM_P2
2021/04/24 00:00:17;;;;;;;0.50;0.50;;;;;;;8.68;42.99;97549.69;29989;292;6000;-57
2021/04/24 00:00:47;;;;;;;0.60;0.60;;;;;;;8.67;42.98;97550.75;29990;338;6004;-57
2021/04/24 00:01:18;;;;;;;0.60;0.60;;;;;;;8.66;43.04;97551.84;29990;206;6000;-59
2021/04/24 00:01:50;;;;;;;0.60;0.60;;;;;;;8.66;43.08;97559.19;29989;218;6004;-57
2021/04/24 00:02:23;;;;;;;0.60;0.60;;;;;;;8.65;43.08;97558.38;29990;224;6000;-58
2021/04/24 00:02:54;;;;;;;0.60;0.60;;;;;;;8.65;42.45;97550.25;29990;214;6004;-58
2021/04/24 00:03:25;;;;;;;0.60;0.60;;;;;;;8.65;42.44;97547.53;29990;235;6000;-57
2021/04/24 00:04:02;;;;;;;0.60;0.60;;;;;;;8.65;42.63;97550.25;29990;197;6004;-57
2021/04/24 00:04:33;;;;;;;0.68;0.68;;;;;;;8.64;42.80;97548.63;29990;261;6000;-58
2021/04/24 00:05:06;;;;;;;0.60;0.60;;;;;;;8.63;42.78;97547.00;29990;197;6005;-57
2021/04/24 00:05:42;;;;;;;0.60;0.60;;;;;;;8.63;43.03;97552.41;29990;220;6000;-57
2021/04/24 00:06:13;;;;;;;0.60;0.60;;;;;;;8.61;42.91;97549.13;29989;216;6005;-56
2021/04/24 00:06:44;;;;;;;0.60;0.60;;;;;;;8.60;42.83;97546.69;29990;307;6000;-56
2021/04/24 00:07:15;;;;;;;2.92;1.87;;;;;;;8.60;43.00;97544.81;29990;220;6004;-57
2021/04/24 00:07:46;;;;;;;0.52;0.52;;;;;;;8.58;43.00;97546.97;29989;239;6000;-58
2021/04/24 00:08:17;;;;;;;0.50;0.50;;;;;;;8.56;43.30;97551.00;29990;202;6004;-57
2021/04/24 00:08:48;;;;;;;0.52;0.52;;;;;;;8.54;43.56;97547.75;29990;212;6000;-56
2021/04/24 00:09:19;;;;;;;0.60;0.60;;;;;;;8.51;43.63;97549.09;29990;236;6004;-57
2021/04/24 00:09:52;;;;;;;0.60;0.60;;;;;;;8.49;43.89;97550.44;29990;197;6000;-56
2021/04/24 00:10:27;;;;;;;0.60;0.60;;;;;;;8.47;44.19;97549.88;29990;207;6004;-58
2021/04/24 00:10:57;;;;;;;0.60;0.60;;;;;;;8.44;44.00;97547.69;29990;285;6000;-56
2021/04/24 00:11:28;;;;;;;0.50;0.50;;;;;;;8.41;44.06;97551.72;29990;215;6004;-57
2021/04/24 00:11:59;;;;;;;0.60;0.60;;;;;;;8.39;44.24;97556.59;29991;237;6000;-58
2021/04/24 00:12:31;;;;;;;0.60;0.60;;;;;;;8.36;44.12;97557.91;29990;216;6000;-57
2021/04/24 00:13:03;;;;;;;0.50;0.50;;;;;;;8.34;44.14;97559.25;29989;210;6000;-55
2021/04/24 00:13:33;;;;;;;0.60;0.60;;;;;;;8.30;44.42;97558.16;29989;208;6005;-58
2021/04/24 00:14:04;;;;;;;0.60;0.60;;;;;;;8.26;44.19;97554.34;29989;208;6000;-58
2021/04/24 00:14:36;;;;;;;0.50;0.50;;;;;;;8.23;44.43;97552.16;29990;233;6004;-57
2021/04/24 00:15:11;;;;;;;0.60;0.60;;;;;;;8.23;44.24;97557.56;29990;197;6008;-58
2021/04/24 00:15:46;;;;;;;0.60;0.60;;;;;;;8.21;43.98;97554.31;29989;227;6004;-57
2021/04/24 00:16:19;;;;;;;0.60;0.60;;;;;;;8.20;44.07;97555.37;29990;210;6000;-57
2021/04/24 00:16:53;;;;;;;0.60;0.60;;;;;;;8.19;43.79;97559.16;29990;208;6004;-58
2021/04/24 00:17:25;;;;;;;0.60;0.60;;;;;;;8.16;43.97;97551.56;29990;258;6000;-56
2021/04/24 00:17:55;;;;;;;0.60;0.60;;;;;;;8.13;44.08;97552.09;29989;208;6004;-57
2021/04/24 00:18:26;;;;;;;0.60;0.60;;;;;;;8.13;43.81;97552.09;29990;206;6000;-57
2021/04/24 00:18:57;;;;;;;0.60;0.60;;;;;;;8.11;44.01;97548.81;29990;352;6005;-58
2021/04/24 00:19:28;;;;;;;0.60;0.60;;;;;;;8.10;44.14;97547.19;29990;238;6000;-57
2021/04/24 00:19:58;;;;;;;0.60;0.60;;;;;;;8.10;44.32;97552.59;29990;213;6005;-57
2021/04/24 00:20:30;;;;;;;0.60;0.60;;;;;;;8.08;44.01;97556.38;29990;224;6000;-57
2021/04/24 00:21:04;;;;;;;0.60;0.60;;;;;;;8.06;43.99;97550.41;29989;228;6005;-58
2021/04/24 00:21:35;;;;;;;0.60;0.60;;;;;;;8.05;44.40;97546.09;29990;210;6000;-58
2021/04/24 00:22:05;;;;;;;0.60;0.60;;;;;;;8.02;44.16;97551.19;29990;210;6004;-57
2021/04/24 00:22:37;;;;;;;0.60;0.60;;;;;;;8.00;44.00;97551.47;29990;212;6000;-58
2021/04/24 00:23:08;;;;;;;0.60;0.60;;;;;;;7.96;44.43;97547.66;29990;241;6004;-57
2021/04/24 00:23:39;;;;;;;0.60;0.60;;;;;;;7.92;44.48;97546.56;29990;208;6000;-57
2021/04/24 00:24:10;;;;;;;0.60;0.60;;;;;;;7.89;44.72;97552.47;29990;299;6004;-57
2021/04/24 00:24:40;;;;;;;0.60;0.60;;;;;;;7.88;44.74;97544.63;29990;202;6000;-56
2021/04/24 00:25:12;;;;;;;0.60;0.60;;;;;;;7.86;44.68;97544.88;29990;202;6004;-56
2021/04/24 00:25:42;;;;;;;0.60;0.60;;;;;;;7.86;44.51;97542.19;29990;214;6000;-57
2021/04/24 00:26:13;;;;;;;0.60;0.60;;;;;;;7.83;44.92;97536.50;29989;311;6005;-58
2021/04/24 00:26:44;;;;;;;0.60;0.60;;;;;;;7.83;44.98;97548.09;29990;199;6000;-57
2021/04/24 00:27:14;;;;;;;0.60;0.60;;;;;;;7.81;45.01;97544.03;29990;209;6005;-58
2021/04/24 00:27:45;;;;;;;0.60;0.60;;;;;;;7.80;45.16;97542.41;29990;374;6000;-57
2021/04/24 00:28:16;;;;;;;0.60;0.60;;;;;;;7.78;45.72;97547.25;29990;253;6005;-58
2021/04/24 00:28:46;;;;;;;0.60;0.60;;;;;;;7.75;45.41;97540.47;29990;232;6000;-59
2021/04/24 00:29:17;;;;;;;0.60;0.60;;;;;;;7.73;45.76;97553.44;29990;320;6004;-59
2021/04/24 00:29:48;;;;;;;0.60;0.60;;;;;;;7.69;45.80;97547.72;29990;289;6000;-57
2021/04/24 00:30:20;;;;;;;0.60;0.60;;;;;;;7.67;45.73;97546.34;29990;267;6004;-58
2021/04/24 00:30:51;;;;;;;0.60;0.60;;;;;;;7.65;45.70;97545.78;29990;210;6000;-56
2021/04/24 00:31:21;;;;;;;0.60;0.60;;;;;;;7.64;46.12;97544.16;29989;368;6004;-56
2021/04/24 00:31:52;;;;;;;0.60;0.60;;;;;;;7.65;46.10;97548.50;29990;208;6000;-57
2021/04/24 00:32:22;;;;;;;0.60;0.60;;;;;;;7.65;45.88;97543.91;29990;258;6004;-57
2021/04/24 00:32:54;;;;;;;0.60;0.60;;;;;;;7.64;46.44;97554.97;29990;220;6008;-58
2021/04/24 00:33:25;;;;;;;0.60;0.60;;;;;;;7.61;46.02;97550.09;29990;205;6009;-56
2021/04/24 00:33:55;;;;;;;0.60;0.60;;;;;;;7.57;46.07;97546.28;29990;228;6009;-57
2021/04/24 00:34:26;;;;;;;0.60;0.60;;;;;;;7.59;45.81;97555.75;29990;209;6005;-56
2021/04/24 00:34:57;;;;;;;0.60;0.60;;;;;;;7.57;46.15;97549.00;29990;236;6000;-58
2021/04/24 00:35:28;;;;;;;0.60;0.60;;;;;;;7.56;45.99;97544.66;29990;210;6005;-57
2021/04/24 00:35:59;;;;;;;0.60;0.60;;;;;;;7.54;46.03;97544.09;29990;196;6000;-57
2021/04/24 00:36:30;;;;;;;0.60;0.60;;;;;;;7.56;45.63;97552.75;29989;202;6013;-58
2021/04/24 00:37:01;;;;;;;0.60;0.60;;;;;;;7.56;45.59;97552.75;29990;213;6009;-59
2021/04/24 00:37:32;;;;;;;0.60;0.60;;;;;;;7.55;45.53;97543.03;29990;213;6013;-57
2021/04/24 00:38:02;;;;;;;0.60;0.60;;;;;;;7.54;45.43;97544.09;29990;246;6000;-56
2021/04/24 00:38:33;;;;;;;0.60;0.60;;;;;;;7.53;45.78;97542.47;29990;235;6013;-56
2021/04/24 00:39:05;;;;;;;0.60;0.60;;;;;;;7.53;45.78;97542.47;29990;285;6000;-56
2021/04/24 00:39:35;;;;;;;0.60;0.60;;;;;;;7.51;45.76;97545.44;29990;215;6004;-56
2021/04/24 00:40:10;;;;;;;0.60;0.60;;;;;;;7.50;45.88;97537.56;29990;214;6000;-56
2021/04/24 00:40:41;;;;;;;0.60;0.60;;;;;;;7.49;46.53;97546.75;29990;257;6004;-56
2021/04/24 00:41:12;;;;;;;0.60;0.60;;;;;;;7.42;47.84;97546.16;29990;199;6000;-56
2021/04/24 00:41:42;;;;;;;0.60;0.60;;;;;;;7.37;47.10;97544.22;29989;316;6005;-56
2021/04/24 00:42:13;;;;;;;0.60;0.60;;;;;;;7.34;47.14;97545.53;29990;306;6000;-56
2021/04/24 00:42:46;;;;;;;0.60;0.60;;;;;;;7.34;46.88;97545.53;29990;222;6005;-56
2021/04/24 00:43:18;;;;;;;0.60;0.60;;;;;;;7.32;46.91;97542.28;29990;224;6000;-55
2021/04/24 00:43:48;;;;;;;0.60;0.60;;;;;;;7.31;47.21;97537.13;29990;197;6004;-56
2021/04/24 00:44:20;;;;;;;0.60;0.60;;;;;;;7.31;46.90;97535.25;29990;226;6000;-58
2021/04/24 00:44:53;;;;;;;0.60;0.60;;;;;;;7.34;46.92;97539.31;29990;266;6004;-56
2021/04/24 00:45:25;;;;;;;0.60;0.60;;;;;;;7.30;46.80;97533.63;29990;211;6000;-56
2021/04/24 00:45:55;;;;;;;0.60;0.60;;;;;;;7.30;46.75;97535.50;29990;227;6004;-56
2021/04/24 00:46:26;;;;;;;0.60;0.60;;;;;;;7.27;47.39;97544.13;29990;208;6000;-55
2021/04/24 00:46:57;;;;;;;0.60;0.60;;;;;;;7.25;47.48;97533.59;29989;302;6004;-56
2021/04/24 00:47:27;;;;;;;0.60;0.60;;;;;;;7.28;47.18;97535.75;29990;204;6009;-58
2021/04/24 00:47:59;;;;;;;0.60;0.60;;;;;;;7.27;47.06;97530.63;29990;230;6004;-56
2021/04/24 00:48:30;;;;;;;0.60;0.60;;;;;;;7.25;47.55;97536.28;29990;279;6011;-55
2021/04/24 00:49:01;;;;;;;0.60;0.60;;;;;;;7.23;47.61;97527.62;29990;276;6005;-56
2021/04/24 00:49:32;;;;;;;0.60;0.60;;;;;;;7.23;47.60;97533.03;29990;235;6007;-56
2021/04/24 00:50:08;;;;;;;0.60;0.60;;;;;;;7.24;47.28;97534.66;29990;216;6005;-57
2021/04/24 00:50:41;;;;;;;0.60;0.60;;;;;;;7.23;47.07;97538.44;29990;279;6000;-57
2021/04/24 00:51:12;;;;;;;0.60;0.60;;;;;;;7.23;47.24;97529.53;29990;242;6004;-57
2021/04/24 00:51:42;;;;;;;0.60;0.60;;;;;;;7.22;47.50;97526.00;29989;234;6000;-58
2021/04/24 00:52:15;;;;;;;0.50;0.50;;;;;;;7.22;47.46;97531.41;29990;203;6004;-57
2021/04/24 00:52:46;;;;;;;0.60;0.60;;;;;;;7.24;47.05;97528.44;29990;225;6000;-57
2021/04/24 00:53:16;;;;;;;0.60;0.60;;;;;;;7.22;46.98;97531.41;29990;272;6004;-57
2021/04/24 00:53:47;;;;;;;0.60;0.60;;;;;;;7.21;46.98;97524.37;29990;206;6000;-58
2021/04/24 00:54:17;;;;;;;0.60;0.60;;;;;;;7.18;47.26;97529.47;29990;239;6004;-57
2021/04/24 00:54:48;;;;;;;0.60;0.60;;;;;;;7.18;47.35;97522.19;29990;240;6000;-57
2021/04/24 00:55:19;;;;;;;0.60;0.60;;;;;;;7.16;47.61;97527.03;29990;295;6007;-56
2021/04/24 00:55:49;;;;;;;0.60;0.60;;;;;;;7.12;47.95;97530.47;29990;231;6000;-57
2021/04/24 00:56:20;;;;;;;0.60;0.60;;;;;;;7.12;47.70;97531.28;29990;238;6005;-57
2021/04/24 00:56:51;;;;;;;0.60;0.60;;;;;;;7.10;47.71;97528.03;29990;259;6000;-57
2021/04/24 00:57:21;;;;;;;0.60;0.60;;;;;;;7.12;48.22;97525.91;29989;235;6005;-57
2021/04/24 00:57:52;;;;;;;0.60;0.60;;;;;;;7.11;47.85;97528.84;29990;222;6000;-57
2021/04/24 00:58:24;;;;;;;0.60;0.60;;;;;;;7.10;47.73;97522.63;29990;265;6005;-59
2021/04/24 00:58:55;;;;;;;0.60;0.60;;;;;;;7.09;47.63;97525.59;29990;239;6000;-55
2021/04/24 00:59:26;;;;;;;0.60;0.60;;;;;;;7.09;47.54;97526.41;29990;225;6004;-59
2021/04/24 00:59:58;;;;;;;0.60;0.60;;;;;;;7.09;47.67;97521.00;29990;239;6000;-56
2021/04/24 01:00:29;;;;;;;0.60;0.60;;;;;;;7.10;47.68;97522.63;29990;221;6004;-56
2021/04/24 01:01:03;;;;;;;0.60;0.60;;;;;;;7.09;47.81;97523.72;29990;204;6000;-56
2021/04/24 01:01:33;;;;;;;0.60;0.60;;;;;;;7.07;47.73;97528.53;29990;233;6012;-57
2021/04/24 01:02:06;;;;;;;0.60;0.60;;;;;;;7.03;47.73;97522.84;29990;215;6000;-57
2021/04/24 01:02:38;;;;;;;0.60;0.60;;;;;;;7.04;48.17;97523.66;29989;232;6004;-57
2021/04/24 01:03:08;;;;;;;0.60;0.60;;;;;;;7.02;48.06;97523.09;29989;213;6000;-55
2021/04/24 01:03:39;;;;;;;0.60;0.60;;;;;;;7.01;48.10;97524.16;29990;203;6005;-57
2021/04/24 01:04:11;;;;;;;0.60;0.60;;;;;;;6.99;48.14;97527.09;29990;212;6000;-56
2021/04/24 01:04:43;;;;;;;0.60;0.60;;;;;;;6.97;48.21;97518.44;29990;198;6005;-56
2021/04/24 01:05:23;;;;;;;0.60;0.60;;;;;;;6.94;48.65;97518.97;29990;211;6000;-56
2021/04/24 01:05:53;;;;;;;0.60;0.60;;;;;;;6.90;48.26;97525.97;29990;258;6005;-57
2021/04/24 01:06:24;;;;;;;0.60;0.60;;;;;;;6.89;48.43;97520.81;29990;198;6000;-56
2021/04/24 01:06:55;;;;;;;0.60;0.60;;;;;;;6.87;48.36;97512.97;29990;211;6004;-56
2021/04/24 01:07:26;;;;;;;0.60;0.60;;;;;;;6.87;48.58;97517.56;29990;228;6000;-57
2021/04/24 01:07:57;;;;;;;0.60;0.60;;;;;;;6.86;48.79;97516.75;29990;252;6004;-57
2021/04/24 01:08:28;;;;;;;0.60;0.60;;;;;;;6.84;48.60;97518.88;29989;222;6000;-56
2021/04/24 01:08:59;;;;;;;0.60;0.60;;;;;;;6.86;48.76;97516.75;29990;269;6004;-56
2021/04/24 01:09:29;;;;;;;0.60;0.60;;;;;;;6.85;48.94;97520.50;29990;210;6000;-56
2021/04/24 01:10:00;;;;;;;0.60;0.60;;;;;;;6.85;48.79;97514.28;29988;295;6004;-56
2021/04/24 01:10:35;;;;;;;0.60;0.60;;;;;;;6.82;49.05;97521.00;29990;235;6000;-56
2021/04/24 01:11:06;;;;;;;0.60;0.60;;;;;;;6.82;48.83;97522.88;29990;240;6000;-55
2021/04/24 01:11:37;;;;;;;0.60;0.60;;;;;;;6.80;49.04;97517.75;29990;197;6000;-56
2021/04/24 01:12:08;;;;;;;0.60;0.60;;;;;;;6.80;49.04;97514.22;29990;289;6005;-56
2021/04/24 01:12:39;;;;;;;0.60;0.60;;;;;;;6.78;49.00;97514.50;29990;222;6000;-56
2021/04/24 01:13:10;;;;;;;0.60;0.60;;;;;;;6.77;48.88;97512.03;29990;208;6005;-55
2021/04/24 01:13:40;;;;;;;0.60;0.60;;;;;;;6.76;48.88;97515.81;29988;233;6000;-56
2021/04/24 01:14:11;;;;;;;0.60;0.60;;;;;;;6.77;48.84;97517.44;29990;225;6004;-57
2021/04/24 01:14:42;;;;;;;0.60;0.60;;;;;;;6.73;48.99;97517.94;29990;231;6000;-57
2021/04/24 01:15:15;;;;;;;0.60;0.60;;;;;;;6.73;48.88;97515.25;29991;224;6004;-56
2021/04/24 01:15:47;;;;;;;0.60;0.60;;;;;;;6.75;49.12;97517.69;29990;202;6000;-56
2021/04/24 01:16:18;;;;;;;0.60;0.60;;;;;;;6.75;48.97;97512.28;29991;231;6004;-57
2021/04/24 01:16:50;;;;;;;0.60;0.60;;;;;;;6.79;48.72;97521.50;29991;213;6000;-56
2021/04/24 01:17:20;;;;;;;0.60;0.60;;;;;;;6.80;48.60;97519.62;29991;279;6004;-58
2021/04/24 01:17:51;;;;;;;0.60;0.60;;;;;;;6.79;49.03;97512.59;29991;225;6000;-56
2021/04/24 01:18:22;;;;;;;0.60;0.60;;;;;;;6.79;48.70;97515.31;29991;229;6018;-57
2021/04/24 01:18:52;;;;;;;0.60;0.60;;;;;;;6.80;48.93;97516.94;29991;231;6000;-57
2021/04/24 01:19:25;;;;;;;0.60;0.60;;;;;;;6.81;49.10;97507.78;29991;224;6005;-57
2021/04/24 01:19:55;;;;;;;0.60;0.60;;;;;;;6.79;49.24;97512.59;29989;221;6000;-56
2021/04/24 01:20:27;;;;;;;0.60;0.60;;;;;;;6.75;49.83;97519.56;29991;334;6005;-57
2021/04/24 01:20:58;;;;;;;0.60;0.60;;;;;;;6.69;49.34;97507.91;29991;235;6000;-56
2021/04/24 01:21:30;;;;;;;0.60;0.60;;;;;;;6.68;49.35;97515.19;29991;267;6004;-57
2021/04/24 01:22:09;;;;;;;0.60;0.60;;;;;;;6.70;49.46;97507.66;29991;208;6010;-57
2021/04/24 01:22:42;;;;;;;0.60;0.60;;;;;;;6.71;49.03;97509.28;29991;220;6004;-57
2021/04/24 01:23:13;;;;;;;0.60;0.60;;;;;;;6.74;49.21;97513.38;29991;217;6000;-57
2021/04/24 01:23:44;;;;;;;0.60;0.60;;;;;;;6.75;49.22;97515.00;29991;240;6004;-56
2021/04/24 01:24:16;;;;;;;0.60;0.60;;;;;;;6.76;49.03;97515.81;29991;268;6000;-57
2021/04/24 01:24:48;;;;;;;0.60;0.60;;;;;;;6.76;49.33;97505.00;29991;499;6000;-56
2021/04/24 01:25:22;;;;;;;0.60;0.60;;;;;;;6.77;49.13;97512.03;29990;234;6000;-56
2021/04/24 01:25:53;;;;;;;0.70;0.70;;;;;;;6.76;49.14;97510.41;29990;226;6005;-56
2021/04/24 01:26:24;;;;;;;0.60;0.60;;;;;;;6.72;49.00;97505.53;29991;234;6000;-57
2021/04/24 01:26:55;;;;;;;0.60;0.60;;;;;;;6.72;49.14;97507.41;29991;295;6005;-56
2021/04/24 01:27:26;;;;;;;0.60;0.60;;;;;;;6.72;48.99;97513.63;29991;236;6000;-55
2021/04/24 01:28:00;;;;;;;0.60;0.60;;;;;;;6.70;49.17;97513.03;29992;250;6004;-56
2021/04/24 01:28:31;;;;;;;0.60;0.60;;;;;;;6.69;49.73;97516.81;29991;224;6000;-57
2021/04/24 01:29:04;;;;;;;0.68;0.68;;;;;;;6.63;49.46;97517.81;29990;289;6004;-57
2021/04/24 01:29:38;;;;;;;0.60;0.60;;;;;;;6.61;49.48;97502.94;29991;241;6000;-56
2021/04/24 01:30:10;;;;;;;0.60;0.60;;;;;;;6.60;49.36;97512.91;29991;351;6004;-57
2021/04/24 01:30:44;;;;;;;0.60;0.60;;;;;;;6.59;49.54;97515.87;29990;254;6000;-56
2021/04/24 01:31:16;;;;;;;0.60;0.60;;;;;;;6.55;49.29;97504.00;29991;291;6004;-55
2021/04/24 01:31:46;;;;;;;0.60;0.60;;;;;;;6.55;49.40;97509.37;29991;300;6000;-57
2021/04/24 01:32:17;;;;;;;0.60;0.60;;;;;;;6.57;49.48;97510.75;29991;201;6004;-57
2021/04/24 01:32:48;;;;;;;0.60;0.60;;;;;;;6.58;49.47;97512.38;29991;207;6000;-56
2021/04/24 01:33:20;;;;;;;0.60;0.60;;;;;;;6.57;49.30;97508.06;29990;227;6005;-56
2021/04/24 01:33:50;;;;;;;0.60;0.60;;;;;;;6.58;49.49;97511.56;29991;214;6000;-56
2021/04/24 01:34:22;;;;;;;0.60;0.60;;;;;;;6.56;49.55;97509.13;29991;318;6005;-57
2021/04/24 01:34:52;;;;;;;0.60;0.60;;;;;;;6.54;49.68;97508.56;29990;227;6000;-57
2021/04/24 01:35:30;;;;;;;0.60;0.60;;;;;;;6.53;49.80;97506.94;29991;320;6005;-57
2021/04/24 01:36:01;;;;;;;0.60;0.60;;;;;;;6.53;49.85;97511.50;29991;309;6000;-57
2021/04/24 01:36:31;;;;;;;0.60;0.60;;;;;;;6.52;50.05;97508.00;29989;196;6004;-57
2021/04/24 01:37:03;;;;;;;0.60;0.60;;;;;;;6.52;50.15;97510.69;29991;228;6000;-56
2021/04/24 01:37:34;;;;;;;0.60;0.60;;;;;;;6.55;49.79;97510.19;29990;279;6004;-56
2021/04/24 01:38:06;;;;;;;0.60;0.60;;;;;;;6.56;49.67;97516.41;29991;379;6000;-56
2021/04/24 01:38:37;;;;;;;0.60;0.60;;;;;;;6.56;49.37;97505.62;29991;256;6004;-57
2021/04/24 01:39:11;;;;;;;0.60;0.60;;;;;;;6.57;49.20;97508.06;29991;203;6000;-56
2021/04/24 01:39:41;;;;;;;0.60;0.60;;;;;;;6.57;49.15;97513.44;29991;293;6008;-56
2021/04/24 01:40:16;;;;;;;0.60;0.60;;;;;;;6.58;49.23;97506.19;29990;260;6000;-57
2021/04/24 01:40:47;;;;;;;0.60;0.60;;;;;;;6.58;49.06;97504.31;29991;200;6012;-57
2021/04/24 01:41:17;;;;;;;0.60;0.60;;;;;;;6.59;49.08;97500.50;29990;219;6000;-57
2021/04/24 01:41:48;;;;;;;0.60;0.60;;;;;;;6.60;49.15;97507.53;29991;257;6005;-56
2021/04/24 01:42:18;;;;;;;0.60;0.60;;;;;;;6.58;48.90;97509.69;29990;330;6000;-57
2021/04/24 01:42:50;;;;;;;0.60;0.60;;;;;;;6.60;48.71;97512.91;29991;198;6005;-56
2021/04/24 01:43:20;;;;;;;0.60;0.60;;;;;;;6.59;49.28;97499.69;29991;260;6000;-56
2021/04/24 01:43:53;;;;;;;0.60;0.60;;;;;;;6.58;49.14;97507.00;29991;209;6004;-56
2021/04/24 01:44:24;;;;;;;0.60;0.60;;;;;;;6.56;49.40;97506.44;29990;276;6000;-57
2021/04/24 01:44:55;;;;;;;0.60;0.60;;;;;;;6.57;49.39;97502.66;29990;229;6004;-56
2021/04/24 01:45:25;;;;;;;0.60;0.60;;;;;;;6.58;49.37;97509.69;29991;217;6000;-56
2021/04/24 01:45:56;;;;;;;0.60;0.60;;;;;;;6.59;49.29;97507.78;29991;227;6004;-56
2021/04/24 01:46:27;;;;;;;0.60;0.60;;;;;;;6.59;49.20;97508.59;29991;221;6000;-56
2021/04/24 01:46:58;;;;;;;0.60;0.60;;;;;;;6.59;49.06;97505.91;29991;215;6004;-56
2021/04/24 01:47:29;;;;;;;0.60;0.60;;;;;;;6.59;49.35;97500.50;29990;239;6000;-56
2021/04/24 01:47:59;;;;;;;0.60;0.60;;;;;;;6.58;49.48;97501.59;29991;221;6004;-56
2021/04/24 01:48:30;;;;;;;0.60;0.60;;;;;;;6.57;49.78;97505.38;29991;202;6000;-55
2021/04/24 01:49:01;;;;;;;0.60;0.60;;;;;;;6.57;49.66;97502.66;29990;284;6010;-57
2021/04/24 01:49:31;;;;;;;0.60;0.60;;;;;;;6.55;49.85;97504.81;29991;198;6000;-56
2021/04/24 01:50:16;;;;;;;0.60;0.60;;;;;;;6.55;49.89;97499.41;29991;214;6005;-54
2021/04/24 01:50:47;;;;;;;0.60;0.60;;;;;;;6.55;49.77;97504.81;29991;264;6007;-56
2021/04/24 01:51:18;;;;;;;0.60;0.60;;;;;;;6.54;49.83;97497.78;29991;199;6004;-56
2021/04/24 01:51:49;;;;;;;0.70;0.70;;;;;;;6.53;49.72;97506.94;29991;199;6000;-55
2021/04/24 01:52:20;;;;;;;0.65;0.65;;;;;;;6.52;50.09;97504.50;29991;196;6004;-57
2021/04/24 01:52:53;;;;;;;0.60;0.60;;;;;;;6.51;50.52;97503.66;29990;268;6000;-57
2021/04/24 01:53:26;;;;;;;0.60;0.60;;;;;;;6.51;50.49;97503.66;29991;291;6004;-57
2021/04/24 01:53:57;;;;;;;0.70;0.70;;;;;;;6.52;50.58;97508.00;29991;202;6000;-56
2021/04/24 01:54:29;;;;;;;0.60;0.60;;;;;;;6.53;49.86;97501.53;29991;196;6004;-57
2021/04/24 01:54:59;;;;;;;0.60;0.60;;;;;;;6.54;49.78;97503.16;29991;241;6000;-56
2021/04/24 01:55:32;;;;;;;0.60;0.60;;;;;;;6.57;49.65;97496.47;29991;245;6004;-56
2021/04/24 01:56:04;;;;;;;0.70;0.70;;;;;;;6.57;49.61;97494.59;29990;218;6000;-57
2021/04/24 01:56:46;;;;;;;0.70;0.70;;;;;;;6.57;49.60;97497.28;29991;199;6005;-56
2021/04/24 01:57:17;;;;;;;0.60;0.60;;;;;;;6.60;49.78;97502.13;29991;224;6000;-56
2021/04/24 01:57:49;;;;;;;0.60;0.60;;;;;;;6.61;49.71;97497.56;29991;206;6005;-56
2021/04/24 01:58:22;;;;;;;0.60;0.60;;;;;;;6.62;49.52;97499.19;29991;222;6000;-57
2021/04/24 01:58:53;;;;;;;0.60;0.60;;;;;;;6.62;49.36;97499.19;29992;219;6004;-57
2021/04/24 01:59:34;;;;;;;0.68;0.68;;;;;;;6.62;49.27;97494.63;29992;235;6000;-56
2021/04/24 02:00:09;;;;;;;0.60;0.60;;;;;;;6.62;49.52;97502.69;29992;196;6004;-57
2021/04/24 02:00:43;;;;;;;0.60;0.60;;;;;;;6.61;49.34;97495.69;29992;210;6000;-57
2021/04/24 02:01:14;;;;;;;0.60;0.60;;;;;;;6.61;49.10;97492.16;29991;266;6004;-56
2021/04/24 02:01:50;;;;;;;0.70;0.70;;;;;;;6.56;49.14;97484.03;29991;234;6000;-56
2021/04/24 02:02:24;;;;;;;0.60;0.60;;;;;;;6.59;49.44;97505.91;29992;220;6004;-56
2021/04/24 02:02:58;;;;;;;0.60;0.60;;;;;;;6.60;49.71;97499.44;29992;246;6000;-56
2021/04/24 02:03:29;;;;;;;0.55;0.55;;;;;;;6.59;50.07;97497.81;29992;203;6005;-57
2021/04/24 02:04:01;;;;;;;0.60;0.60;;;;;;;6.59;49.72;97499.69;29992;204;6000;-56
2021/04/24 02:04:33;;;;;;;0.60;0.60;;;;;;;6.58;49.67;97498.91;29992;203;6005;-56
2021/04/24 02:05:08;;;;;;;1.67;1.67;;;;;;;6.58;49.85;97496.22;29992;276;6000;-56
2021/04/24 02:05:40;;;;;;;0.60;0.60;;;;;;;6.59;49.97;97499.69;29992;251;6005;-58
2021/04/24 02:06:11;;;;;;;0.60;0.60;;;;;;;6.58;49.81;97498.91;29992;292;6000;-57
2021/04/24 02:06:41;;;;;;;0.60;0.60;;;;;;;6.58;49.60;97498.09;29991;223;6004;-56
2021/04/24 02:07:12;;;;;;;0.60;0.60;;;;;;;6.58;49.79;97498.91;29992;263;5989;-58
2021/04/24 02:08:04;;;;;;;0.60;0.60;;;;;;;6.58;49.55;97498.09;29992;275;5994;-57
2021/04/24 02:08:38;;;;;;;0.70;0.70;;;;;;;6.57;49.61;97491.88;29991;199;6000;-56
2021/04/24 02:09:14;;;;;;;0.70;0.70;;;;;;;6.57;49.36;97499.16;29992;198;6004;-56
2021/04/24 02:09:45;;;;;;;0.70;0.70;;;;;;;6.55;49.35;97494.03;29992;227;6000;-55
2021/04/24 02:10:15;;;;;;;0.60;0.60;;;;;;;6.57;49.43;97497.28;29992;260;6004;-57
2021/04/24 02:10:49;;;;;;;0.60;0.60;;;;;;;6.56;49.28;97503.75;29992;222;6000;-56
2021/04/24 02:11:19;;;;;;;0.60;0.60;;;;;;;6.56;49.28;97494.84;29992;213;6005;-56
2021/04/24 02:12:19;;;;;;;0.60;0.60;;;;;;;6.53;49.60;97496.16;29992;304;6000;-57
2021/04/24 02:12:51;;;;;;;0.70;0.70;;;;;;;6.54;49.53;97491.56;29991;197;6005;-57
2021/04/24 02:13:26;;;;;;;0.60;0.60;;;;;;;6.52;49.43;97494.53;29992;228;6000;-57
2021/04/24 02:13:56;;;;;;;0.70;0.70;;;;;;;6.52;49.49;97489.12;29991;345;6004;-56
2021/04/24 02:14:27;;;;;;;0.60;0.60;;;;;;;6.52;49.77;97491.81;29991;232;6000;-57
2021/04/24 02:14:58;;;;;;;0.60;0.60;;;;;;;6.52;49.63;97488.31;29992;230;6004;-58
2021/04/24 02:15:30;;;;;;;0.60;0.60;;;;;;;6.51;49.89;97492.87;29992;257;6000;-57
2021/04/24 02:16:03;;;;;;;0.60;0.60;;;;;;;6.50;49.62;97496.66;29992;198;6004;-57
2021/04/24 02:16:35;;;;;;;0.60;0.60;;;;;;;6.48;49.65;97482.59;29991;241;6000;-57
2021/04/24 02:17:13;;;;;;;0.70;0.70;;;;;;;6.47;49.99;97491.75;29992;196;6004;-58
2021/04/24 02:17:47;;;;;;;0.60;0.60;;;;;;;6.45;50.01;97493.87;29992;206;6000;-55
2021/04/24 02:18:18;;;;;;;0.60;0.60;;;;;;;6.43;49.99;97497.91;29992;292;6005;-55
2021/04/24 02:18:49;;;;;;;0.60;0.60;;;;;;;6.41;50.08;97498.16;29991;280;6000;-56
2021/04/24 02:19:19;;;;;;;0.60;0.60;;;;;;;6.39;50.10;97494.88;29992;202;6005;-56
2021/04/24 02:19:53;;;;;;;0.60;0.60;;;;;;;6.37;50.23;97491.63;29992;231;6000;-57
2021/04/24 02:20:24;;;;;;;0.60;0.60;;;;;;;6.39;50.18;97492.19;29992;202;6004;-56
2021/04/24 02:20:55;;;;;;;0.60;0.60;;;;;;;6.39;50.20;97497.59;29992;287;6000;-56
2021/04/24 02:21:25;;;;;;;0.60;0.60;;;;;;;6.40;50.29;97496.53;29991;373;6004;-56
2021/04/24 02:21:56;;;;;;;0.60;0.60;;;;;;;6.41;50.29;97498.16;29992;313;6000;-55
2021/04/24 02:22:27;;;;;;;0.60;0.60;;;;;;;6.41;50.59;97498.16;29992;231;6004;-55
2021/04/24 02:22:58;;;;;;;0.60;0.60;;;;;;;6.39;50.50;97494.88;29992;197;6000;-56
2021/04/24 02:23:37;;;;;;;0.60;0.60;;;;;;;6.37;50.40;97503.22;29992;235;6004;-57
2021/04/24 02:24:09;;;;;;;0.60;0.60;;;;;;;6.35;50.37;97496.44;29991;362;6000;-55
2021/04/24 02:24:49;;;;;;;0.60;0.60;;;;;;;6.34;50.54;97500.22;29992;229;6004;-56
2021/04/24 02:25:23;;;;;;;0.60;0.60;;;;;;;6.33;50.69;97490.50;29992;360;6000;-56
2021/04/24 02:25:57;;;;;;;0.60;0.60;;;;;;;6.34;50.74;97503.72;29992;303;6005;-55
2021/04/24 02:26:28;;;;;;;0.60;0.60;;;;;;;6.35;50.43;97501.84;29992;253;6000;-56
2021/04/24 02:26:58;;;;;;;0.60;0.60;;;;;;;6.35;50.24;97499.16;29991;202;6005;-57
2021/04/24 02:27:29;;;;;;;0.60;0.60;;;;;;;6.34;50.19;97495.63;29992;206;6000;-55
2021/04/24 02:28:00;;;;;;;0.60;0.60;;;;;;;6.35;50.20;97497.28;29992;199;6004;-56
2021/04/24 02:28:31;;;;;;;0.60;0.60;;;;;;;6.34;50.61;97497.53;29992;203;6000;-57
2021/04/24 02:29:01;;;;;;;0.60;0.60;;;;;;;6.34;50.63;97492.94;29992;198;6004;-56
2021/04/24 02:29:32;;;;;;;0.60;0.60;;;;;;;6.35;50.73;97488.38;29991;345;6000;-56
2021/04/24 02:30:06;;;;;;;0.70;0.70;;;;;;;6.36;50.79;97500.78;29992;268;6004;-55
2021/04/24 02:30:37;;;;;;;0.60;0.60;;;;;;;6.35;51.08;97488.38;29992;245;6000;-56
2021/04/24 02:31:08;;;;;;;0.60;0.60;;;;;;;6.35;51.04;97494.56;29992;391;6004;-55
2021/04/24 02:31:39;;;;;;;0.60;0.60;;;;;;;6.33;51.11;97495.88;29992;246;6000;-55
2021/04/24 02:32:11;;;;;;;0.60;0.60;;;;;;;6.32;51.11;97494.25;29992;278;6004;-56
2021/04/24 02:32:43;;;;;;;0.60;0.60;;;;;;;6.32;51.16;97494.25;29992;320;6000;-56
2021/04/24 02:33:13;;;;;;;0.60;0.60;;;;;;;6.31;50.69;97493.44;29992;202;6005;-55
2021/04/24 02:33:44;;;;;;;0.60;0.60;;;;;;;6.32;50.66;97496.94;29991;266;6000;-56
2021/04/24 02:34:15;;;;;;;0.60;0.60;;;;;;;6.33;50.49;97495.88;29991;224;6005;-56
2021/04/24 02:34:48;;;;;;;0.60;0.60;;;;;;;6.33;50.52;97490.50;29992;255;6000;-56
2021/04/24 02:35:25;;;;;;;0.60;0.60;;;;;;;6.33;50.24;97491.31;29991;289;6004;-57
2021/04/24 02:35:58;;;;;;;0.60;0.60;;;;;;;6.33;50.33;97491.31;29992;383;6000;-56